首页
METAR-TAF:

METAR-TAF

机场 :

特鲁瓦, 法国

纬度: 48-20N, 经度: 004-01E, 海拔: 118米

当前天气观测

该预报发布于20分钟前的21:30 UTC
风速7节,风向南转西南
温度 3°C
湿度 93%
气压 1018 hPa
能见度10公里或以上
少量云层高于3900英尺

METAR: LFQB 292130Z AUTO 21007KT 9999 FEW039 03/02 Q1018

时间: 22:50 (21:50 UTC)


TAF: 丢失

超过4000个机场的气象观测和天气预报(METAR&TAF报告)。

可查询的气象台以黄色和红色小点在地图上表示。

将鼠标移到小点上方,可查看气象台名称。

然后点击查看天气观测和预报。

如需切换地图:点击带黑十字的绿色按钮放大地图;点击带横线的绿色按钮缩小地图;或者点击绿色箭头查看邻近地区的地图。


METAR-TAF: